KCCB/CCB METAR and TAF weather

Enter ICAO airport designator
Station Type Date Time Source
KCCB METAR 2020/04/04 05:15 UTC NOAA

KCCB 040515Z AUTO 26006KT 10SM 13/09 A2993 RMK AO2


Station Type Date Time Source
KCCB Decoded METAR 2020/04/04 05:15 UTC NOAA

Station name not available
Apr 04, 2020 - 01:15 AM EDT / 2020.04.04 0515 UTC
Wind: from the W (260 degrees) at 7 MPH (6 KT):0
Visibility: 10 mile(s):0
Temperature: 55 F (13 C)
Dew Point: 48 F (9 C)
Relative Humidity: 76%
Pressure (altimeter): 29.93 in. Hg (1013 hPa)
ob: KCCB 040515Z AUTO 26006KT 10SM 13/09 A2993 RMK AO2
cycle: 5

Station Type Date Time Source
KCCB TAF UTC NOAA

Error!

Example: see airport list